Time;durP1;ratioP1;P1;durP2;ratioP2;P2;SDS_P1;SDS_P2;PMS_P1;PMS_P2;Temp;Humidity;BMP_temperature;BMP_pressure;BME280_temperature;BME280_humidity;BME280_pressure;Samples;Min_cycle;Max_cycle;Signal;HPM_P1;HPM_P2
2021/05/31 00:01:50;;;;;;;30.15;20.92;;;;;;;9.80;79.06;97646.80;1640961;85;25718;-85
2021/05/31 00:04:17;;;;;;;26.45;20.80;;;;;;;9.73;79.09;97650.30;1652917;84;25732;-90
2021/05/31 00:06:57;;;;;;;28.67;22.20;;;;;;;9.70;79.19;97643.95;1652582;84;25409;-88
2021/05/31 00:09:24;;;;;;;33.30;25.17;;;;;;;9.73;79.31;97640.88;1650151;84;27365;-90
2021/05/31 00:11:51;;;;;;;35.60;24.82;;;;;;;9.77;79.27;97639.13;1652410;85;25761;-85
2021/05/31 00:14:17;;;;;;;36.35;27.17;;;;;;;9.79;79.27;97647.31;1654705;84;25190;-83
2021/05/31 00:16:44;;;;;;;34.60;26.73;;;;;;;9.82;79.23;97647.43;1653347;84;25530;-86
2021/05/31 00:19:12;;;;;;;33.05;25.17;;;;;;;9.87;79.16;97649.02;1652662;84;25726;-88
2021/05/31 00:21:39;;;;;;;34.98;24.67;;;;;;;9.84;79.08;97645.37;1639105;85;27489;-95
2021/05/31 00:24:07;;;;;;;33.95;23.40;;;;;;;9.83;79.03;97647.23;1642101;84;25639;-87
2021/05/31 00:26:33;;;;;;;33.88;24.05;;;;;;;9.82;79.00;97635.30;1651037;85;25712;-83
2021/05/31 00:29:00;;;;;;;32.53;23.80;;;;;;;9.84;79.00;97638.63;1650967;85;25630;-93
2021/05/31 00:31:26;;;;;;;36.17;24.90;;;;;;;9.84;79.06;97636.77;1651561;85;25671;-87
2021/05/31 00:33:53;;;;;;;36.93;25.62;;;;;;;9.87;79.06;97639.58;1652522;86;27448;-87
2021/05/31 00:36:20;;;;;;;35.60;25.70;;;;;;;9.91;79.04;97634.08;1651109;84;25586;-89
2021/05/31 00:38:47;;;;;;;37.10;24.70;;;;;;;9.92;79.01;97624.96;1638591;84;25227;-87
2021/05/31 00:41:14;;;;;;;37.60;25.27;;;;;;;9.92;79.00;97619.05;1624305;84;25702;-86
2021/05/31 00:43:41;;;;;;;35.78;25.43;;;;;;;9.91;78.97;97627.34;1652462;84;25663;-90
2021/05/31 00:46:10;;;;;;;33.80;25.10;;;;;;;9.91;78.99;97624.64;1652348;85;27315;-96
2021/05/31 00:48:38;;;;;;;31.60;23.95;;;;;;;9.87;79.00;97619.36;1652733;84;25666;-88
2021/05/31 00:51:09;;;;;;;32.30;24.43;;;;;;;9.83;79.04;97622.13;1651761;85;25561;-88
2021/05/31 00:53:36;;;;;;;32.03;23.85;;;;;;;9.84;79.08;97617.06;1651969;84;25727;-89
2021/05/31 00:56:04;;;;;;;29.67;22.55;;;;;;;9.86;79.09;97615.00;1653995;85;25288;-85
2021/05/31 00:58:31;;;;;;;28.55;20.32;;;;;;;9.89;79.06;97615.95;1652910;84;27396;-90
2021/05/31 01:01:00;;;;;;;24.32;19.10;;;;;;;9.90;79.03;97611.67;1653054;84;25699;-86
2021/05/31 01:03:28;;;;;;;24.00;17.67;;;;;;;9.91;78.93;97616.04;1654029;84;25636;-93
2021/05/31 01:05:57;;;;;;;26.00;18.07;;;;;;;9.91;78.85;97620.59;1652539;84;25675;-88
2021/05/31 01:08:53;;;;;;;25.43;17.65;;;;;;;9.90;78.78;97611.67;1651513;84;25286;-92
2021/05/31 01:12:11;;;;;;;24.95;17.52;;;;;;;9.88;78.71;97611.59;1628921;84;27397;-95
2021/05/31 01:14:45;;;;;;;26.07;18.62;;;;;;;9.88;78.69;97608.37;1653727;85;25578;-89
2021/05/31 01:17:22;;;;;;;24.55;17.73;;;;;;;9.88;78.71;97608.89;1652723;85;25247;-95
2021/05/31 01:19:57;;;;;;;27.58;18.87;;;;;;;9.84;78.66;97606.27;1651597;84;26553;-94
2021/05/31 01:22:26;;;;;;;26.95;19.25;;;;;;;9.75;78.67;97602.94;1653829;85;25470;-86
2021/05/31 01:25:19;;;;;;;28.27;19.45;;;;;;;9.71;78.76;97605.19;1655148;85;27339;-89
2021/05/31 01:28:28;;;;;;;26.70;19.10;;;;;;;9.68;78.82;97600.20;1647067;84;25555;-87
2021/05/31 01:30:57;;;;;;;27.50;19.98;;;;;;;9.68;78.91;97601.54;1654620;84;25283;-88
2021/05/31 01:33:28;;;;;;;34.33;22.67;;;;;;;9.59;78.94;97597.36;1690385;84;25681;-86
2021/05/31 01:35:57;;;;;;;34.20;22.60;;;;;;;9.59;79.01;97599.22;1668765;84;25223;-91
2021/05/31 01:38:25;;;;;;;27.27;19.98;;;;;;;9.59;79.06;97602.75;1654436;85;27426;-87
2021/05/31 01:40:52;;;;;;;31.33;20.77;;;;;;;9.60;79.12;97600.37;1654635;84;25251;-90
2021/05/31 01:43:20;;;;;;;27.35;19.40;;;;;;;9.60;79.13;97600.37;1655338;84;25258;-87
2021/05/31 01:45:47;;;;;;;34.23;21.35;;;;;;;9.62;79.14;97601.52;1617588;86;25782;-92
2021/05/31 01:48:14;;;;;;;28.67;21.30;;;;;;;9.60;79.17;97607.11;1649680;85;25243;-94
2021/05/31 01:50:42;;;;;;;24.65;18.92;;;;;;;9.58;79.21;97601.09;1654138;84;27325;-91
2021/05/31 01:53:09;;;;;;;27.35;20.27;;;;;;;9.57;79.22;97600.77;1651785;85;25223;-94
2021/05/31 01:55:38;;;;;;;28.67;21.77;;;;;;;9.59;79.23;97608.14;1652681;84;25247;-90
2021/05/31 01:58:07;;;;;;;28.02;21.00;;;;;;;9.61;79.19;97603.39;1654122;85;25532;-90
2021/05/31 02:00:34;;;;;;;25.88;19.85;;;;;;;9.62;79.09;97602.36;1653642;84;25281;-94
2021/05/31 02:03:02;;;;;;;25.05;18.87;;;;;;;9.59;79.07;97603.27;1653294;85;27322;-93
2021/05/31 02:05:29;;;;;;;23.75;18.55;;;;;;;9.50;79.08;97601.27;1653659;84;26159;-89
2021/05/31 02:07:56;;;;;;;25.48;19.00;;;;;;;9.49;79.18;97605.50;1654383;85;25570;-92
2021/05/31 02:10:22;;;;;;;28.35;20.12;;;;;;;9.48;79.23;97602.48;1653883;84;25895;-94
2021/05/31 02:12:56;;;;;;;32.20;23.02;;;;;;;9.45;79.23;97605.06;1653579;85;25682;-92
2021/05/31 02:15:37;;;;;;;33.88;24.00;;;;;;;9.46;79.27;97605.38;1653453;84;27363;-94
2021/05/31 02:18:27;;;;;;;32.05;23.30;;;;;;;9.46;79.26;97602.69;1653435;84;25676;-84
2021/05/31 02:20:59;;;;;;;37.67;21.73;;;;;;;9.45;79.29;97598.33;1645938;85;25283;-92
2021/05/31 02:23:28;;;;;;;36.75;21.87;;;;;;;9.45;79.34;97598.84;1657586;84;25711;-92
2021/05/31 02:25:55;;;;;;;33.80;21.48;;;;;;;9.45;79.33;97602.36;1657031;85;25630;-87
2021/05/31 02:28:21;;;;;;;34.48;20.15;;;;;;;9.43;79.32;97603.08;1654793;84;27498;-89
2021/05/31 02:30:48;;;;;;;33.55;21.50;;;;;;;9.46;79.36;97602.69;1652409;84;25589;-93
2021/05/31 02:33:14;;;;;;;31.25;21.77;;;;;;;9.47;79.38;97597.61;1635208;85;25172;-93
2021/05/31 02:35:41;;;;;;;33.35;21.68;;;;;;;9.49;79.45;97594.20;1653725;84;25706;-90
2021/05/31 02:38:08;;;;;;;34.65;23.45;;;;;;;9.52;79.42;97597.86;1653308;84;25706;-91
2021/05/31 02:40:37;;;;;;;35.35;23.52;;;;;;;9.55;79.38;97592.05;1652731;86;28071;-89
2021/05/31 02:43:09;;;;;;;35.63;24.50;;;;;;;9.59;79.34;97593.32;1654321;84;25249;-89
2021/05/31 02:45:36;;;;;;;34.57;23.33;;;;;;;9.62;79.26;97597.48;1654911;84;25416;-95
2021/05/31 02:48:04;;;;;;;40.03;24.67;;;;;;;9.62;79.21;97605.05;1653276;84;25674;-90
2021/05/31 02:50:32;;;;;;;31.52;23.05;;;;;;;9.60;79.18;97603.07;1653919;85;25281;-91
2021/05/31 02:52:59;;;;;;;27.48;21.00;;;;;;;9.58;79.19;97593.52;1652948;85;27328;-96
2021/05/31 02:55:29;;;;;;;31.90;20.88;;;;;;;9.61;79.20;97595.81;1632946;85;25657;-91
2021/05/31 02:57:56;;;;;;;26.50;19.73;;;;;;;9.62;79.11;97598.31;1654167;84;25211;-89
2021/05/31 03:00:26;;;;;;;23.07;18.77;;;;;;;9.63;79.05;97598.63;1653526;85;25677;-96
2021/05/31 03:02:54;;;;;;;25.50;19.70;;;;;;;9.65;79.01;97600.62;1653529;84;25268;-88
2021/05/31 03:05:28;;;;;;;25.25;19.48;;;;;;;9.64;78.90;97601.65;1654810;83;27400;-82
2021/05/31 03:07:57;;;;;;;23.25;18.02;;;;;;;9.63;78.89;97595.11;1654289;86;25288;-84
2021/05/31 03:10:24;;;;;;;26.50;18.23;;;;;;;9.59;78.86;97597.36;1652796;86;25689;-96
2021/05/31 03:12:52;;;;;;;32.13;18.17;;;;;;;9.59;78.86;97593.83;1644196;84;25616;-95
2021/05/31 03:15:20;;;;;;;24.25;18.70;;;;;;;9.56;78.85;97593.71;1640512;84;25319;-95
2021/05/31 03:17:48;;;;;;;24.67;18.10;;;;;;;9.54;78.94;97591.73;1652143;84;27338;-96
2021/05/31 03:20:15;;;;;;;24.30;18.10;;;;;;;9.52;78.95;97589.78;1653571;85;25197;-96
2021/05/31 03:22:42;;;;;;;27.67;18.77;;;;;;;9.41;78.84;97596.25;1654428;84;25152;-85
2021/05/31 03:25:11;;;;;;;23.83;18.02;;;;;;;9.36;78.96;97598.18;1654395;84;25666;-93
2021/05/31 03:27:39;;;;;;;25.25;18.73;;;;;;;9.38;79.08;97590.73;1644489;85;25244;-93
2021/05/31 03:30:09;;;;;;;26.02;19.57;;;;;;;9.34;79.08;97583.55;1630555;85;27372;-96
2021/05/31 03:32:37;;;;;;;27.67;19.00;;;;;;;9.34;79.15;97589.45;1644895;85;25727;-81
2021/05/31 03:35:06;;;;;;;28.10;18.98;;;;;;;9.37;79.17;97589.91;1644663;85;25570;-93
2021/05/31 03:37:33;;;;;;;26.05;19.17;;;;;;;9.41;79.11;97590.34;1640830;85;25683;-87
2021/05/31 03:40:00;;;;;;;27.48;18.35;;;;;;;9.41;79.11;97589.52;1630769;85;25507;-96
2021/05/31 03:42:26;;;;;;;24.75;18.62;;;;;;;9.44;79.11;97590.44;1637564;85;27217;-95
2021/05/31 03:44:53;;;;;;;26.35;18.32;;;;;;;9.41;79.13;97589.00;1633530;85;25835;-81
2021/05/31 03:47:19;;;;;;;26.10;18.37;;;;;;;9.41;79.13;97590.34;1635663;85;26187;-82
2021/05/31 03:49:47;;;;;;;24.85;17.82;;;;;;;9.43;79.16;97587.42;1643617;85;25718;-81
2021/05/31 03:52:14;;;;;;;29.55;19.90;;;;;;;9.42;79.13;97589.28;1627489;85;26409;-86
2021/05/31 03:54:40;;;;;;;29.65;21.37;;;;;;;9.33;78.95;97590.48;1641313;85;27334;-86
2021/05/31 03:57:07;;;;;;;31.45;22.80;;;;;;;9.32;79.08;97586.95;1644503;85;25655;-82
2021/05/31 03:59:34;;;;;;;34.00;24.20;;;;;;;9.38;79.13;97588.04;1644179;85;25736;-86
2021/05/31 04:02:01;;;;;;;36.30;24.65;;;;;;;9.42;79.16;97583.89;1631973;85;25674;-86
2021/05/31 04:04:38;;;;;;;35.10;24.18;;;;;;;9.46;79.15;97585.69;1636773;85;25700;-83
2021/05/31 04:12:26;;;;;;;34.90;23.95;;;;;;;9.51;79.09;97580.54;1643836;85;25699;-88
2021/05/31 04:14:52;;;;;;;35.88;25.20;;;;;;;9.51;78.98;97584.06;1624915;85;25656;-86
2021/05/31 04:17:19;;;;;;;33.80;24.37;;;;;;;9.47;78.92;97586.00;1632093;85;25729;-84
2021/05/31 04:19:46;;;;;;;34.78;24.47;;;;;;;9.42;78.91;97582.55;1618989;85;27300;-84
2021/05/31 04:22:12;;;;;;;38.10;27.67;;;;;;;9.45;79.05;97594.28;1644214;85;25625;-86
2021/05/31 04:24:39;;;;;;;37.58;27.35;;;;;;;9.48;79.07;97592.55;1643843;87;25642;-88
2021/05/31 04:27:06;;;;;;;39.85;28.40;;;;;;;9.52;79.03;97590.29;1648310;85;25802;-90
2021/05/31 04:29:33;;;;;;;36.08;27.52;;;;;;;9.53;79.00;97590.09;1651084;84;25717;-85
2021/05/31 04:32:00;;;;;;;42.58;29.75;;;;;;;9.56;78.97;97590.19;1650902;85;27335;-87
2021/05/31 04:34:27;;;;;;;42.03;31.20;;;;;;;9.55;78.97;97590.70;1650551;85;25743;-87
2021/05/31 04:36:53;;;;;;;35.55;26.42;;;;;;;9.56;78.92;97589.67;1650975;85;26491;-84
2021/05/31 04:39:20;;;;;;;36.13;25.92;;;;;;;9.59;78.88;97589.80;1647332;84;25717;-96
2021/05/31 04:41:46;;;;;;;35.20;25.97;;;;;;;9.61;78.87;97595.30;1624206;85;25701;-85
2021/05/31 04:44:13;;;;;;;36.83;27.13;;;;;;;9.61;78.90;97599.86;1644518;85;27318;-83
2021/05/31 04:46:40;;;;;;;38.02;26.52;;;;;;;9.57;78.95;97600.77;1651161;84;25621;-85
2021/05/31 04:49:06;;;;;;;34.00;23.55;;;;;;;9.52;79.08;97597.86;1651019;84;25481;-93
2021/05/31 04:51:34;;;;;;;35.63;23.87;;;;;;;9.53;79.15;97598.69;1650714;84;26910;-88
2021/05/31 04:54:01;;;;;;;35.17;23.90;;;;;;;9.53;79.18;97604.08;1650786;85;25658;-90
2021/05/31 04:56:28;;;;;;;36.23;23.18;;;;;;;9.48;79.18;97599.80;1650848;85;27254;-88
2021/05/31 04:58:54;;;;;;;30.43;23.00;;;;;;;9.46;79.27;97594.59;1650723;84;25632;-84
2021/05/31 05:01:21;;;;;;;35.52;24.82;;;;;;;9.49;79.35;97592.03;1650746;85;25767;-90
2021/05/31 05:03:48;;;;;;;34.58;23.98;;;;;;;9.52;79.35;97588.42;1650902;84;25692;-86
2021/05/31 05:06:15;;;;;;;36.13;25.23;;;;;;;9.56;79.32;97590.19;1651991;84;25234;-87
2021/05/31 05:08:41;;;;;;;35.17;23.77;;;;;;;9.60;79.27;97587.41;1652276;84;27403;-83
2021/05/31 05:11:08;;;;;;;35.58;24.63;;;;;;;9.63;79.24;97589.20;1651962;85;25826;-90
2021/05/31 05:13:34;;;;;;;33.08;23.38;;;;;;;9.64;79.23;97582.78;1634264;85;25576;-83
2021/05/31 05:16:01;;;;;;;30.05;22.45;;;;;;;9.66;79.21;97576.64;1649617;84;25618;-96
2021/05/31 05:18:28;;;;;;;33.92;22.60;;;;;;;9.69;79.18;97582.99;1651542;85;26259;-83
2021/05/31 05:20:54;;;;;;;29.07;21.10;;;;;;;9.72;79.22;97580.41;1632856;84;27388;-88
2021/05/31 05:23:21;;;;;;;26.62;19.65;;;;;;;9.75;79.18;97589.45;1651858;84;25604;-82
2021/05/31 05:25:47;;;;;;;26.20;18.87;;;;;;;9.72;79.21;97585.29;1652281;85;25564;-83
2021/05/31 05:28:14;;;;;;;29.60;20.02;;;;;;;9.74;79.23;97585.92;1654326;85;25692;-87
2021/05/31 05:30:41;;;;;;;25.95;19.12;;;;;;;9.78;79.20;97586.33;1652912;85;26174;-89
2021/05/31 05:33:07;;;;;;;27.40;18.25;;;;;;;9.81;79.09;97582.41;1652853;84;27298;-93
2021/05/31 05:35:38;;;;;;;28.57;20.77;;;;;;;9.82;78.97;97588.12;1652698;85;25280;-93
2021/05/31 05:43:39;;;;;;;25.97;19.40;;;;;;;9.84;78.97;97592.80;1653865;84;25256;-90
2021/05/31 05:46:04;;;;;;;24.95;18.65;;;;;;;9.86;79.05;97593.43;1653542;86;27360;-83
2021/05/31 05:48:30;;;;;;;25.55;18.05;;;;;;;9.90;79.00;97589.30;1652599;84;25639;-94
2021/05/31 05:51:06;;;;;;;25.88;17.65;;;;;;;9.95;78.86;97596.25;1637811;85;25484;-91
2021/05/31 05:53:37;;;;;;;22.13;17.00;;;;;;;9.99;78.84;97601.56;1648842;84;25751;-94
2021/05/31 05:56:08;;;;;;;22.58;16.00;;;;;;;10.02;78.90;97594.42;1651222;85;25738;-91
2021/05/31 05:58:35;;;;;;;26.77;17.00;;;;;;;10.03;78.92;97586.63;1650868;85;27334;-95
2021/05/31 06:01:03;;;;;;;22.87;17.02;;;;;;;10.04;78.87;97588.28;1650885;84;25632;-95
2021/05/31 06:03:30;;;;;;;20.95;16.50;;;;;;;9.96;78.66;97588.48;1651054;85;25458;-89
2021/05/31 06:05:59;;;;;;;21.50;16.60;;;;;;;9.93;78.69;97592.41;1651155;84;25910;-90
2021/05/31 06:08:26;;;;;;;22.30;17.67;;;;;;;9.99;78.80;97585.39;1651090;84;25407;-91
2021/05/31 06:10:53;;;;;;;22.65;17.07;;;;;;;9.98;78.79;97591.81;1650933;84;27188;-95
2021/05/31 06:13:23;;;;;;;22.58;16.52;;;;;;;10.02;78.89;97590.38;1650936;84;25683;-83
2021/05/31 06:15:49;;;;;;;25.52;17.90;;;;;;;10.10;78.85;97592.88;1650928;84;25528;-90
2021/05/31 06:18:16;;;;;;;22.20;16.70;;;;;;;10.18;78.76;97594.06;1650989;84;25965;-91
2021/05/31 06:20:43;;;;;;;24.52;17.87;;;;;;;10.27;78.74;97591.48;1650930;84;25611;-92
2021/05/31 06:23:09;;;;;;;21.12;17.40;;;;;;;10.33;78.75;97592.03;1652043;84;28044;-87
2021/05/31 06:25:37;;;;;;;25.00;18.35;;;;;;;10.41;78.85;97590.47;1652299;84;25235;-93
2021/05/31 06:28:06;;;;;;;23.20;17.62;;;;;;;10.51;78.72;97590.06;1653164;84;25293;-92
2021/05/31 06:30:35;;;;;;;25.80;17.57;;;;;;;10.58;78.58;97590.91;1651835;85;25746;-94
2021/05/31 06:33:03;;;;;;;22.42;18.23;;;;;;;10.66;78.51;97587.17;1651690;84;25594;-89
2021/05/31 06:35:29;;;;;;;28.30;18.37;;;;;;;10.75;78.47;97585.91;1651862;84;27349;-89
2021/05/31 06:37:57;;;;;;;24.65;19.15;;;;;;;10.73;78.37;97578.05;1648816;84;25624;-91
2021/05/31 06:40:24;;;;;;;23.95;18.65;;;;;;;10.67;78.18;97580.22;1645244;84;25631;-93
2021/05/31 06:42:53;;;;;;;24.57;17.70;;;;;;;10.73;78.27;97582.10;1650876;85;25689;-89
2021/05/31 06:45:25;;;;;;;28.77;19.75;;;;;;;10.80;78.42;97582.08;1650970;85;25738;-89
2021/05/31 06:47:58;;;;;;;25.62;18.55;;;;;;;10.90;78.42;97579.78;1650285;84;27395;-89
2021/05/31 06:50:27;;;;;;;26.97;17.60;;;;;;;10.98;78.31;97575.54;1650358;84;25740;-87
2021/05/31 06:52:54;;;;;;;23.18;18.35;;;;;;;11.05;78.31;97576.34;1651199;84;25266;-91
2021/05/31 06:55:23;;;;;;;25.23;18.30;;;;;;;11.18;78.29;97572.80;1650415;84;26429;-90
2021/05/31 06:57:51;;;;;;;24.52;18.20;;;;;;;11.29;78.21;97569.96;1650549;85;25655;-89
2021/05/31 07:00:22;;;;;;;25.40;18.35;;;;;;;11.39;78.16;97568.99;1646062;84;27351;-87
2021/05/31 07:02:49;;;;;;;22.25;17.17;;;;;;;11.49;78.41;97572.08;1628862;86;25738;-89
2021/05/31 07:05:16;;;;;;;24.52;16.93;;;;;;;11.57;78.17;97570.51;1650345;84;25838;-87
2021/05/31 07:07:43;;;;;;;25.23;18.00;;;;;;;11.65;77.88;97575.67;1650337;85;26513;-86
2021/05/31 07:10:12;;;;;;;23.87;17.85;;;;;;;11.74;77.81;97570.32;1650358;84;25633;-86
2021/05/31 07:12:40;;;;;;;27.45;17.55;;;;;;;11.82;77.91;97572.83;1650511;85;27342;-87
2021/05/31 07:15:07;;;;;;;28.00;19.25;;;;;;;11.94;78.00;97570.80;1650281;84;25696;-86
2021/05/31 07:17:36;;;;;;;24.45;18.20;;;;;;;12.02;77.74;97568.66;1650303;84;25589;-88
2021/05/31 07:20:09;;;;;;;25.20;17.55;;;;;;;12.15;77.65;97563.70;1650444;84;25678;-87
2021/05/31 07:22:37;;;;;;;24.40;17.48;;;;;;;12.26;77.50;97564.36;1650391;84;26451;-87
2021/05/31 07:25:07;;;;;;;22.77;16.93;;;;;;;12.39;77.40;97564.80;1650612;84;27339;-86
2021/05/31 07:27:34;;;;;;;20.35;15.90;;;;;;;12.48;77.20;97558.89;1649780;84;25618;-88
2021/05/31 07:30:01;;;;;;;24.37;16.57;;;;;;;12.56;77.07;97559.96;1650353;84;25541;-89
2021/05/31 07:32:28;;;;;;;21.30;15.93;;;;;;;12.60;76.70;97558.48;1650436;84;26293;-88
2021/05/31 07:34:55;;;;;;;20.88;15.70;;;;;;;12.70;76.56;97559.86;1650294;84;25206;-86
2021/05/31 07:37:21;;;;;;;20.70;15.63;;;;;;;12.81;76.76;97561.84;1650381;85;27265;-88
2021/05/31 07:39:48;;;;;;;22.90;15.48;;;;;;;12.97;76.46;97559.94;1650204;84;26309;-85
2021/05/31 07:42:14;;;;;;;18.92;14.50;;;;;;;13.13;76.66;97558.55;1649677;84;25647;-89
2021/05/31 07:44:41;;;;;;;19.32;14.75;;;;;;;13.31;76.50;97555.34;1650325;84;25712;-84
2021/05/31 07:47:08;;;;;;;20.60;14.25;;;;;;;13.45;76.09;97556.56;1650553;84;25673;-87
2021/05/31 07:49:34;;;;;;;18.82;13.83;;;;;;;13.54;75.48;97549.77;1650242;84;28026;-85
2021/05/31 07:52:18;;;;;;;18.25;13.25;;;;;;;13.65;75.28;97555.27;1650200;84;25704;-86
2021/05/31 07:54:36;;;;;;;16.48;11.80;;;;;;;13.73;74.84;97555.51;1650263;85;25679;-86
2021/05/31 07:57:03;;;;;;;14.98;11.18;;;;;;;13.91;74.47;97556.83;1650284;84;26374;-87
2021/05/31 07:59:30;;;;;;;14.85;11.50;;;;;;;14.15;73.99;97550.14;1650475;85;26268;-86
2021/05/31 08:01:57;;;;;;;12.45;10.08;;;;;;;14.19;73.16;97552.17;1646691;85;28028;-85
2021/05/31 08:04:23;;;;;;;12.95;9.93;;;;;;;14.20;73.02;97547.57;1636541;84;25262;-86
2021/05/31 08:06:50;;;;;;;11.33;9.05;;;;;;;14.29;72.71;97546.18;1650398;84;25719;-86
2021/05/31 08:09:17;;;;;;;11.05;8.13;;;;;;;14.24;71.85;97542.81;1650357;85;25870;-85
2021/05/31 08:11:43;;;;;;;11.75;8.40;;;;;;;14.12;71.90;97542.48;1650283;85;25651;-87
2021/05/31 08:14:10;;;;;;;9.73;8.25;;;;;;;14.14;71.82;97545.77;1650312;84;27303;-86
2021/05/31 08:16:37;;;;;;;10.88;7.70;;;;;;;14.16;71.43;97543.12;1650078;84;25683;-85
2021/05/31 08:19:03;;;;;;;12.37;7.25;;;;;;;14.21;71.20;97539.73;1650395;84;25587;-85
2021/05/31 08:21:30;;;;;;;10.72;7.75;;;;;;;14.71;71.31;97532.91;1650429;84;26509;-85
2021/05/31 08:23:57;;;;;;;14.07;7.75;;;;;;;15.34;71.13;97528.10;1650035;85;25680;-85
2021/05/31 08:26:24;;;;;;;8.75;7.00;;;;;;;15.88;70.68;97527.37;1650167;85;27375;-86
2021/05/31 08:28:51;;;;;;;13.38;8.73;;;;;;;16.52;70.34;97532.94;1642294;84;25716;-86
2021/05/31 08:31:18;;;;;;;11.65;7.42;;;;;;;17.13;69.32;97519.49;1638606;85;25771;-87
2021/05/31 08:33:45;;;;;;;8.18;6.33;;;;;;;17.37;67.93;97517.38;1643101;85;26240;-82
2021/05/31 08:36:11;;;;;;;6.90;5.92;;;;;;;17.68;67.64;97507.70;1643214;85;26329;-83
2021/05/31 08:38:38;;;;;;;8.33;6.87;;;;;;;18.25;66.94;97509.44;1643063;85;28172;-83
2021/05/31 08:41:04;;;;;;;7.25;5.67;;;;;;;18.53;66.39;97511.09;1643006;85;25568;-85
2021/05/31 08:43:31;;;;;;;8.60;5.42;;;;;;;19.14;65.83;97503.40;1643241;85;25711;-82
2021/05/31 08:45:58;;;;;;;9.98;6.08;;;;;;;19.30;64.52;97499.68;1643299;85;25617;-85
2021/05/31 08:48:25;;;;;;;8.13;5.30;;;;;;;19.29;63.36;97501.59;1624620;85;25644;-83
2021/05/31 08:50:52;;;;;;;10.48;5.47;;;;;;;19.70;63.46;97495.80;1643198;85;27278;-83
2021/05/31 08:53:20;;;;;;;6.15;5.55;;;;;;;20.07;62.75;97499.76;1622234;85;25767;-84
2021/05/31 08:55:47;;;;;;;8.75;6.12;;;;;;;20.26;61.55;97471.86;1616787;85;25619;-83
2021/05/31 08:58:14;;;;;;;5.97;4.95;;;;;;;20.14;61.04;97492.13;1635805;85;26470;-84
2021/05/31 09:00:41;;;;;;;5.42;4.15;;;;;;;20.15;60.49;97487.47;1643326;85;25707;-84
2021/05/31 09:03:09;;;;;;;6.87;4.90;;;;;;;19.65;58.41;97474.42;1643282;85;27323;-84
2021/05/31 09:05:39;;;;;;;6.08;5.28;;;;;;;19.10;58.92;97480.38;1624497;85;25596;-84
2021/05/31 09:08:19;;;;;;;7.97;5.40;;;;;;;18.72;59.16;97483.66;1643106;85;25596;-84
2021/05/31 09:11:01;;;;;;;9.58;5.05;;;;;;;18.46;59.77;97476.33;1641966;85;26779;-88
2021/05/31 09:13:43;;;;;;;6.25;5.00;;;;;;;18.12;60.20;97480.63;1643419;85;25657;-83
2021/05/31 09:16:19;;;;;;;8.73;4.70;;;;;;;18.12;59.65;97479.26;1643275;85;28058;-84
2021/05/31 09:18:56;;;;;;;6.15;4.35;;;;;;;17.93;59.42;97477.98;1643199;85;25830;-83
2021/05/31 09:21:33;;;;;;;13.62;5.08;;;;;;;17.61;59.44;97476.49;1642960;85;25685;-83
2021/05/31 09:24:10;;;;;;;10.38;4.65;;;;;;;17.37;58.76;97481.38;1624437;85;26451;-83
2021/05/31 09:26:54;;;;;;;9.35;5.10;;;;;;;17.12;58.94;97476.39;1643077;85;25794;-83
2021/05/31 09:29:21;;;;;;;10.48;4.92;;;;;;;16.85;59.01;97483.61;1643292;84;27529;-84
2021/05/31 09:32:06;;;;;;;12.35;6.67;;;;;;;16.47;59.84;97491.14;1650522;84;25640;-85
2021/05/31 09:34:34;;;;;;;8.30;5.97;;;;;;;16.03;60.79;97493.64;1650476;84;25302;-85
2021/05/31 09:37:04;;;;;;;12.30;5.40;;;;;;;15.69;61.39;97501.41;1649670;84;25686;-91
2021/05/31 09:39:40;;;;;;;7.15;5.30;;;;;;;15.39;62.15;97505.11;1649194;85;25764;-90
2021/05/31 09:42:14;;;;;;;8.75;5.22;;;;;;;15.24;62.58;97499.33;1650651;85;27365;-91
2021/05/31 09:44:44;;;;;;;8.05;5.30;;;;;;;15.04;62.59;97500.25;1650309;84;25407;-88
2021/05/31 09:47:12;;;;;;;11.93;5.70;;;;;;;14.89;63.26;97499.89;1650139;84;25656;-93
2021/05/31 09:49:39;;;;;;;7.85;6.22;;;;;;;14.81;63.91;97500.25;1633154;85;25725;-91
2021/05/31 09:52:13;;;;;;;9.73;8.10;;;;;;;14.74;64.54;97495.74;1650704;84;25663;-92
2021/05/31 09:54:43;;;;;;;15.10;8.05;;;;;;;14.71;64.69;97496.23;1649607;85;27348;-92
2021/05/31 09:57:29;;;;;;;14.05;8.05;;;;;;;14.67;65.03;97498.28;1650469;84;25742;-92
2021/05/31 10:00:14;;;;;;;11.48;8.00;;;;;;;14.66;65.06;97495.27;1650329;84;25597;-92
2021/05/31 10:02:50;;;;;;;12.98;7.08;;;;;;;14.56;65.05;97497.75;1649236;84;26293;-92
2021/05/31 10:10:32;;;;;;;9.25;6.95;;;;;;;14.53;65.62;97490.06;1648576;84;25854;-89
2021/05/31 10:12:59;;;;;;;12.98;8.43;;;;;;;14.45;65.26;97483.63;1637608;84;25661;-91
2021/05/31 10:15:30;;;;;;;12.50;6.90;;;;;;;14.32;65.26;97485.98;1643793;85;26270;-92
2021/05/31 10:17:59;;;;;;;13.18;7.05;;;;;;;14.25;64.99;97486.07;1651049;85;25646;-92
2021/05/31 10:20:29;;;;;;;12.63;8.65;;;;;;;14.29;65.08;97482.38;1650761;85;27336;-86
2021/05/31 10:22:58;;;;;;;9.30;5.58;;;;;;;14.27;64.73;97482.60;1650280;84;25671;-87
2021/05/31 10:25:27;;;;;;;12.75;6.90;;;;;;;14.04;64.06;97484.72;1650435;84;25636;-88
2021/05/31 10:27:58;;;;;;;15.38;7.72;;;;;;;13.83;64.42;97477.64;1650645;85;25691;-88
2021/05/31 10:30:25;;;;;;;14.35;7.97;;;;;;;13.74;64.76;97473.59;1654560;85;25999;-88
2021/05/31 10:32:52;;;;;;;11.65;7.03;;;;;;;13.66;64.78;97476.08;1645743;85;27353;-87
2021/05/31 10:35:26;;;;;;;13.55;8.75;;;;;;;13.56;64.83;97471.73;1646263;85;25656;-92
2021/05/31 10:37:58;;;;;;;10.68;7.08;;;;;;;13.48;64.97;97474.77;1629534;84;25806;-86
2021/05/31 10:40:32;;;;;;;;;;;;;;;13.47;65.39;97467.69;1612174;88;26359;-88
2021/05/31 10:43:03;;;;;;;10.72;6.22;;;;;;;13.48;65.49;97463.92;1657449;85;25624;-89
2021/05/31 10:45:30;;;;;;;10.55;7.78;;;;;;;13.58;65.76;97469.09;1645947;86;27358;-88
2021/05/31 10:48:19;;;;;;;9.70;6.72;;;;;;;13.70;66.31;97468.63;1646429;85;25668;-88
2021/05/31 10:50:53;;;;;;;10.13;6.50;;;;;;;13.78;66.08;97468.81;1636129;84;25754;-88
2021/05/31 10:53:30;;;;;;;7.10;6.05;;;;;;;13.99;66.45;97468.33;1646364;86;25699;-88
2021/05/31 10:56:12;;;;;;;9.03;5.50;;;;;;;14.56;66.98;97461.91;1656001;85;25628;-92
2021/05/31 10:58:47;;;;;;;7.58;5.60;;;;;;;15.15;66.54;97462.70;1646272;85;27348;-88
2021/05/31 11:01:24;;;;;;;12.82;6.20;;;;;;;15.71;65.82;97461.16;1646542;85;25984;-87
2021/05/31 11:04:02;;;;;;;8.20;4.85;;;;;;;16.26;65.11;97452.38;1643270;85;25679;-91
2021/05/31 11:06:43;;;;;;;8.18;4.65;;;;;;;16.67;63.75;97449.25;1646625;85;26390;-88
2021/05/31 11:09:19;;;;;;;8.48;5.00;;;;;;;17.00;64.01;97442.13;1646442;85;26244;-85
2021/05/31 11:11:53;;;;;;;6.37;4.45;;;;;;;17.36;63.09;97429.78;1646572;85;28069;-88
2021/05/31 11:14:43;;;;;;;6.95;4.08;;;;;;;17.57;62.74;97428.41;1645787;85;25715;-88
2021/05/31 11:17:12;;;;;;;8.05;4.12;;;;;;;17.92;61.97;97436.72;1646884;85;25704;-90
2021/05/31 11:19:42;;;;;;;11.22;4.67;;;;;;;18.19;61.18;97437.55;1628631;85;26475;-88
2021/05/31 11:22:19;;;;;;;9.85;4.97;;;;;;;18.44;60.24;97427.92;1646565;85;25604;-88
2021/05/31 11:25:03;;;;;;;7.65;4.28;;;;;;;18.63;59.15;97431.92;1646020;85;27840;-89
2021/05/31 11:27:35;;;;;;;10.15;4.78;;;;;;;18.53;58.02;97424.45;1645592;85;25643;-89
2021/05/31 11:30:07;;;;;;;7.50;4.57;;;;;;;18.22;57.54;97424.75;1654963;84;25780;-90
2021/05/31 11:32:34;;;;;;;6.30;4.47;;;;;;;17.82;56.71;97422.97;1652212;84;25786;-89
2021/05/31 11:35:08;;;;;;;4.50;3.47;;;;;;;17.83;57.65;97421.35;1650455;85;25595;-92
2021/05/31 11:37:34;;;;;;;4.62;3.42;;;;;;;17.94;57.36;97423.64;1650500;85;27309;-88
2021/05/31 11:40:05;;;;;;;7.97;3.45;;;;;;;17.88;56.70;97419.20;1650023;84;25688;-82
2021/05/31 11:42:33;;;;;;;7.47;3.20;;;;;;;17.84;56.17;97418.08;1650401;85;25694;-83
2021/05/31 11:45:00;;;;;;;3.33;2.80;;;;;;;17.79;55.94;97413.92;1650426;84;25708;-81
2021/05/31 11:47:29;;;;;;;5.40;2.80;;;;;;;17.69;56.00;97417.37;1650454;85;25338;-81
2021/05/31 11:49:57;;;;;;;5.58;3.85;;;;;;;17.62;54.98;97420.28;1650330;84;27274;-82
2021/05/31 11:52:25;;;;;;;8.68;3.20;;;;;;;17.40;55.54;97422.72;1650399;84;25715;-82
2021/05/31 11:54:52;;;;;;;3.20;2.35;;;;;;;17.13;55.28;97415.31;1650383;84;25862;-87